sensor_id;sensor_type;location;lat;lon;timestamp;P1;durP1;ratioP1;P2;durP2;ratioP2
58752;SDS011;44525;46.052;13.610;2022-10-14T00:01:05;47.65;;;24.45;;
58752;SDS011;44525;46.052;13.610;2022-10-14T00:03:33;40.00;;;24.02;;
58752;SDS011;44525;46.052;13.610;2022-10-14T00:06:02;45.42;;;26.00;;
58752;SDS011;44525;46.052;13.610;2022-10-14T00:08:30;48.70;;;25.35;;
58752;SDS011;44525;46.052;13.610;2022-10-14T00:10:55;50.10;;;23.23;;
58752;SDS011;44525;46.052;13.610;2022-10-14T00:13:21;44.47;;;22.77;;
58752;SDS011;44525;46.052;13.610;2022-10-14T00:15:46;41.45;;;23.85;;
58752;SDS011;44525;46.052;13.610;2022-10-14T00:18:11;42.97;;;23.80;;
58752;SDS011;44525;46.052;13.610;2022-10-14T00:20:37;41.22;;;22.55;;
58752;SDS011;44525;46.052;13.610;2022-10-14T00:23:02;40.30;;;23.15;;
58752;SDS011;44525;46.052;13.610;2022-10-14T00:25:28;44.10;;;25.13;;
58752;SDS011;44525;46.052;13.610;2022-10-14T00:27:54;43.58;;;24.15;;
58752;SDS011;44525;46.052;13.610;2022-10-14T00:30:19;44.28;;;23.63;;
58752;SDS011;44525;46.052;13.610;2022-10-14T00:32:45;39.20;;;21.95;;
58752;SDS011;44525;46.052;13.610;2022-10-14T00:35:11;39.33;;;22.80;;
58752;SDS011;44525;46.052;13.610;2022-10-14T00:37:36;37.97;;;23.33;;
58752;SDS011;44525;46.052;13.610;2022-10-14T00:40:02;39.17;;;22.88;;
58752;SDS011;44525;46.052;13.610;2022-10-14T00:42:31;45.13;;;24.20;;
58752;SDS011;44525;46.052;13.610;2022-10-14T00:45:05;44.13;;;24.42;;
58752;SDS011;44525;46.052;13.610;2022-10-14T00:47:35;39.88;;;22.13;;
58752;SDS011;44525;46.052;13.610;2022-10-14T00:50:02;42.40;;;22.85;;
58752;SDS011;44525;46.052;13.610;2022-10-14T00:52:28;45.40;;;23.83;;
58752;SDS011;44525;46.052;13.610;2022-10-14T00:54:58;51.63;;;24.20;;
58752;SDS011;44525;46.052;13.610;2022-10-14T00:57:26;44.13;;;22.88;;
58752;SDS011;44525;46.052;13.610;2022-10-14T00:59:53;44.13;;;23.90;;
58752;SDS011;44525;46.052;13.610;2022-10-14T01:02:25;45.00;;;24.45;;
58752;SDS011;44525;46.052;13.610;2022-10-14T01:04:51;43.67;;;25.00;;
58752;SDS011;44525;46.052;13.610;2022-10-14T01:17:55;43.05;;;22.38;;
58752;SDS011;44525;46.052;13.610;2022-10-14T01:20:45;43.63;;;23.17;;
58752;SDS011;44525;46.052;13.610;2022-10-14T01:26:25;41.70;;;23.58;;
58752;SDS011;44525;46.052;13.610;2022-10-14T01:31:58;47.13;;;23.65;;
58752;SDS011;44525;46.052;13.610;2022-10-14T01:34:30;49.00;;;24.70;;
58752;SDS011;44525;46.052;13.610;2022-10-14T01:37:04;37.53;;;22.00;;
58752;SDS011;44525;46.052;13.610;2022-10-14T01:39:41;47.67;;;24.92;;
58752;SDS011;44525;46.052;13.610;2022-10-14T01:42:14;50.35;;;24.55;;
58752;SDS011;44525;46.052;13.610;2022-10-14T01:44:44;51.67;;;26.65;;
58752;SDS011;44525;46.052;13.610;2022-10-14T01:47:20;42.20;;;24.50;;
58752;SDS011;44525;46.052;13.610;2022-10-14T01:50:02;47.70;;;26.00;;
58752;SDS011;44525;46.052;13.610;2022-10-14T01:52:32;48.30;;;25.95;;
58752;SDS011;44525;46.052;13.610;2022-10-14T01:55:03;47.65;;;25.13;;
58752;SDS011;44525;46.052;13.610;2022-10-14T01:57:34;42.78;;;24.83;;
58752;SDS011;44525;46.052;13.610;2022-10-14T02:00:03;44.05;;;26.05;;
58752;SDS011;44525;46.052;13.610;2022-10-14T02:02:34;44.67;;;23.05;;
58752;SDS011;44525;46.052;13.610;2022-10-14T02:05:00;40.42;;;24.02;;
58752;SDS011;44525;46.052;13.610;2022-10-14T02:10:11;41.30;;;23.88;;
58752;SDS011;44525;46.052;13.610;2022-10-14T02:18:29;45.78;;;25.42;;
58752;SDS011;44525;46.052;13.610;2022-10-14T02:21:11;44.42;;;23.65;;
58752;SDS011;44525;46.052;13.610;2022-10-14T02:23:46;44.17;;;24.23;;
58752;SDS011;44525;46.052;13.610;2022-10-14T02:26:17;44.30;;;23.95;;
58752;SDS011;44525;46.052;13.610;2022-10-14T02:28:44;43.38;;;23.00;;
58752;SDS011;44525;46.052;13.610;2022-10-14T02:31:12;50.92;;;25.52;;
58752;SDS011;44525;46.052;13.610;2022-10-14T02:33:41;42.55;;;22.95;;
58752;SDS011;44525;46.052;13.610;2022-10-14T02:36:10;42.30;;;24.23;;
58752;SDS011;44525;46.052;13.610;2022-10-14T02:38:40;44.33;;;24.75;;
58752;SDS011;44525;46.052;13.610;2022-10-14T02:41:08;45.00;;;23.55;;
58752;SDS011;44525;46.052;13.610;2022-10-14T02:43:38;49.80;;;25.90;;
58752;SDS011;44525;46.052;13.610;2022-10-14T02:46:03;46.08;;;24.63;;
58752;SDS011;44525;46.052;13.610;2022-10-14T02:48:29;46.75;;;25.05;;
58752;SDS011;44525;46.052;13.610;2022-10-14T02:50:55;46.50;;;26.17;;
58752;SDS011;44525;46.052;13.610;2022-10-14T02:53:21;41.33;;;24.30;;
58752;SDS011;44525;46.052;13.610;2022-10-14T02:55:46;44.30;;;24.02;;
58752;SDS011;44525;46.052;13.610;2022-10-14T02:58:12;41.50;;;24.80;;
58752;SDS011;44525;46.052;13.610;2022-10-14T03:00:37;45.22;;;25.70;;
58752;SDS011;44525;46.052;13.610;2022-10-14T03:03:02;40.05;;;23.17;;
58752;SDS011;44525;46.052;13.610;2022-10-14T03:05:28;48.28;;;26.13;;
58752;SDS011;44525;46.052;13.610;2022-10-14T03:07:54;47.10;;;24.95;;
58752;SDS011;44525;46.052;13.610;2022-10-14T03:10:19;45.95;;;25.20;;
58752;SDS011;44525;46.052;13.610;2022-10-14T03:12:45;45.92;;;24.95;;
58752;SDS011;44525;46.052;13.610;2022-10-14T03:15:10;46.65;;;25.88;;
58752;SDS011;44525;46.052;13.610;2022-10-14T03:17:37;47.55;;;26.15;;
58752;SDS011;44525;46.052;13.610;2022-10-14T03:20:05;43.55;;;24.75;;
58752;SDS011;44525;46.052;13.610;2022-10-14T03:22:31;41.90;;;25.27;;
58752;SDS011;44525;46.052;13.610;2022-10-14T03:24:56;44.83;;;24.00;;
58752;SDS011;44525;46.052;13.610;2022-10-14T03:27:22;46.00;;;24.58;;
58752;SDS011;44525;46.052;13.610;2022-10-14T03:29:48;47.80;;;23.15;;
58752;SDS011;44525;46.052;13.610;2022-10-14T03:32:13;45.08;;;25.88;;
58752;SDS011;44525;46.052;13.610;2022-10-14T03:34:39;43.78;;;24.45;;
58752;SDS011;44525;46.052;13.610;2022-10-14T03:37:04;46.08;;;25.67;;
58752;SDS011;44525;46.052;13.610;2022-10-14T03:39:30;46.28;;;24.85;;
58752;SDS011;44525;46.052;13.610;2022-10-14T03:41:55;42.83;;;25.13;;
58752;SDS011;44525;46.052;13.610;2022-10-14T03:44:21;51.40;;;26.30;;
58752;SDS011;44525;46.052;13.610;2022-10-14T03:46:47;47.85;;;25.30;;
58752;SDS011;44525;46.052;13.610;2022-10-14T03:49:12;47.90;;;25.35;;
58752;SDS011;44525;46.052;13.610;2022-10-14T03:51:38;48.20;;;24.75;;
58752;SDS011;44525;46.052;13.610;2022-10-14T03:54:03;49.17;;;25.90;;
58752;SDS011;44525;46.052;13.610;2022-10-14T03:56:29;47.80;;;26.48;;
58752;SDS011;44525;46.052;13.610;2022-10-14T03:58:54;46.53;;;24.63;;
58752;SDS011;44525;46.052;13.610;2022-10-14T04:01:20;42.85;;;24.75;;
58752;SDS011;44525;46.052;13.610;2022-10-14T04:03:47;49.97;;;24.63;;
58752;SDS011;44525;46.052;13.610;2022-10-14T04:06:14;44.65;;;25.55;;
58752;SDS011;44525;46.052;13.610;2022-10-14T04:08:40;45.83;;;24.52;;
58752;SDS011;44525;46.052;13.610;2022-10-14T04:11:06;44.13;;;23.77;;
58752;SDS011;44525;46.052;13.610;2022-10-14T04:13:32;45.50;;;26.23;;
58752;SDS011;44525;46.052;13.610;2022-10-14T04:16:03;51.53;;;25.73;;
58752;SDS011;44525;46.052;13.610;2022-10-14T04:18:30;53.90;;;25.90;;
58752;SDS011;44525;46.052;13.610;2022-10-14T04:20:58;47.65;;;24.48;;
58752;SDS011;44525;46.052;13.610;2022-10-14T04:23:25;44.85;;;26.35;;
58752;SDS011;44525;46.052;13.610;2022-10-14T04:25:50;49.72;;;25.90;;
58752;SDS011;44525;46.052;13.610;2022-10-14T04:28:16;49.78;;;27.17;;
58752;SDS011;44525;46.052;13.610;2022-10-14T04:30:42;44.05;;;24.60;;
58752;SDS011;44525;46.052;13.610;2022-10-14T04:33:08;50.67;;;25.90;;
58752;SDS011;44525;46.052;13.610;2022-10-14T04:35:33;54.97;;;26.85;;
58752;SDS011;44525;46.052;13.610;2022-10-14T04:37:58;44.05;;;26.05;;
58752;SDS011;44525;46.052;13.610;2022-10-14T04:40:24;44.83;;;24.17;;
58752;SDS011;44525;46.052;13.610;2022-10-14T04:42:53;47.15;;;26.38;;
58752;SDS011;44525;46.052;13.610;2022-10-14T04:45:20;47.08;;;24.58;;
58752;SDS011;44525;46.052;13.610;2022-10-14T04:47:46;47.55;;;24.63;;
58752;SDS011;44525;46.052;13.610;2022-10-14T04:50:11;46.65;;;24.77;;
58752;SDS011;44525;46.052;13.610;2022-10-14T04:52:37;49.40;;;25.20;;
58752;SDS011;44525;46.052;13.610;2022-10-14T04:55:02;43.70;;;25.08;;
58752;SDS011;44525;46.052;13.610;2022-10-14T04:57:28;42.28;;;23.95;;
58752;SDS011;44525;46.052;13.610;2022-10-14T04:59:54;50.20;;;24.38;;
58752;SDS011;44525;46.052;13.610;2022-10-14T05:02:19;50.97;;;26.40;;
58752;SDS011;44525;46.052;13.610;2022-10-14T05:04:44;57.30;;;26.40;;
58752;SDS011;44525;46.052;13.610;2022-10-14T05:07:10;46.70;;;24.08;;
58752;SDS011;44525;46.052;13.610;2022-10-14T05:09:36;47.90;;;26.42;;
58752;SDS011;44525;46.052;13.610;2022-10-14T05:12:01;47.15;;;25.00;;
58752;SDS011;44525;46.052;13.610;2022-10-14T05:14:28;53.90;;;26.05;;
58752;SDS011;44525;46.052;13.610;2022-10-14T05:16:54;52.78;;;26.80;;
58752;SDS011;44525;46.052;13.610;2022-10-14T05:19:19;48.47;;;25.27;;
58752;SDS011;44525;46.052;13.610;2022-10-14T05:21:44;51.40;;;27.08;;
58752;SDS011;44525;46.052;13.610;2022-10-14T05:24:10;51.20;;;26.58;;
58752;SDS011;44525;46.052;13.610;2022-10-14T05:26:35;55.65;;;27.02;;
58752;SDS011;44525;46.052;13.610;2022-10-14T05:29:01;50.33;;;26.10;;
58752;SDS011;44525;46.052;13.610;2022-10-14T05:31:27;50.70;;;25.73;;
58752;SDS011;44525;46.052;13.610;2022-10-14T05:33:52;57.95;;;26.73;;
58752;SDS011;44525;46.052;13.610;2022-10-14T05:36:17;60.95;;;27.10;;
58752;SDS011;44525;46.052;13.610;2022-10-14T05:38:43;55.20;;;28.35;;
58752;SDS011;44525;46.052;13.610;2022-10-14T05:41:09;51.85;;;26.85;;
58752;SDS011;44525;46.052;13.610;2022-10-14T05:43:34;49.05;;;25.35;;
58752;SDS011;44525;46.052;13.610;2022-10-14T05:46:00;50.30;;;25.77;;
58752;SDS011;44525;46.052;13.610;2022-10-14T05:48:25;56.55;;;29.70;;
58752;SDS011;44525;46.052;13.610;2022-10-14T05:50:52;52.88;;;28.73;;
58752;SDS011;44525;46.052;13.610;2022-10-14T05:53:26;57.40;;;29.02;;
58752;SDS011;44525;46.052;13.610;2022-10-14T05:55:51;56.08;;;28.65;;
58752;SDS011;44525;46.052;13.610;2022-10-14T05:58:17;55.05;;;26.88;;
58752;SDS011;44525;46.052;13.610;2022-10-14T06:00:43;53.97;;;28.23;;
58752;SDS011;44525;46.052;13.610;2022-10-14T06:03:10;61.10;;;28.77;;
58752;SDS011;44525;46.052;13.610;2022-10-14T06:05:36;55.67;;;28.58;;
58752;SDS011;44525;46.052;13.610;2022-10-14T06:08:02;51.58;;;26.73;;
58752;SDS011;44525;46.052;13.610;2022-10-14T06:10:29;57.40;;;28.98;;
58752;SDS011;44525;46.052;13.610;2022-10-14T06:12:54;50.47;;;27.08;;
58752;SDS011;44525;46.052;13.610;2022-10-14T06:15:20;52.67;;;26.35;;
58752;SDS011;44525;46.052;13.610;2022-10-14T06:17:46;55.30;;;28.08;;
58752;SDS011;44525;46.052;13.610;2022-10-14T06:20:11;54.67;;;26.02;;
58752;SDS011;44525;46.052;13.610;2022-10-14T06:22:37;55.17;;;28.67;;
58752;SDS011;44525;46.052;13.610;2022-10-14T06:25:02;53.92;;;26.38;;
58752;SDS011;44525;46.052;13.610;2022-10-14T06:27:30;54.92;;;27.90;;
58752;SDS011;44525;46.052;13.610;2022-10-14T06:29:55;52.35;;;28.13;;
58752;SDS011;44525;46.052;13.610;2022-10-14T06:32:20;56.70;;;28.00;;
58752;SDS011;44525;46.052;13.610;2022-10-14T06:34:46;46.95;;;25.23;;
58752;SDS011;44525;46.052;13.610;2022-10-14T06:37:11;51.25;;;26.10;;
58752;SDS011;44525;46.052;13.610;2022-10-14T06:39:37;53.65;;;26.77;;
58752;SDS011;44525;46.052;13.610;2022-10-14T06:42:02;55.35;;;27.15;;
58752;SDS011;44525;46.052;13.610;2022-10-14T06:44:28;49.92;;;27.10;;
58752;SDS011;44525;46.052;13.610;2022-10-14T06:46:53;50.60;;;26.98;;
58752;SDS011;44525;46.052;13.610;2022-10-14T06:49:19;51.70;;;26.90;;
58752;SDS011;44525;46.052;13.610;2022-10-14T06:51:44;45.63;;;24.30;;
58752;SDS011;44525;46.052;13.610;2022-10-14T06:54:10;51.15;;;26.42;;
58752;SDS011;44525;46.052;13.610;2022-10-14T06:56:35;51.33;;;26.90;;
58752;SDS011;44525;46.052;13.610;2022-10-14T06:59:01;55.80;;;26.38;;
58752;SDS011;44525;46.052;13.610;2022-10-14T07:01:26;45.45;;;25.83;;
58752;SDS011;44525;46.052;13.610;2022-10-14T07:03:52;47.90;;;25.63;;
58752;SDS011;44525;46.052;13.610;2022-10-14T07:06:17;46.63;;;23.85;;
58752;SDS011;44525;46.052;13.610;2022-10-14T07:08:43;47.40;;;24.70;;
58752;SDS011;44525;46.052;13.610;2022-10-14T07:11:08;41.38;;;23.92;;
58752;SDS011;44525;46.052;13.610;2022-10-14T07:13:34;48.13;;;25.90;;
58752;SDS011;44525;46.052;13.610;2022-10-14T07:15:59;41.20;;;23.23;;
58752;SDS011;44525;46.052;13.610;2022-10-14T07:18:25;43.70;;;23.02;;
58752;SDS011;44525;46.052;13.610;2022-10-14T07:20:51;37.22;;;22.63;;
58752;SDS011;44525;46.052;13.610;2022-10-14T07:23:16;42.40;;;22.58;;
58752;SDS011;44525;46.052;13.610;2022-10-14T07:25:42;39.03;;;22.38;;
58752;SDS011;44525;46.052;13.610;2022-10-14T07:28:08;38.20;;;21.67;;
58752;SDS011;44525;46.052;13.610;2022-10-14T07:30:34;40.10;;;23.90;;
58752;SDS011;44525;46.052;13.610;2022-10-14T07:32:59;35.92;;;23.05;;
58752;SDS011;44525;46.052;13.610;2022-10-14T07:35:25;37.67;;;22.77;;
58752;SDS011;44525;46.052;13.610;2022-10-14T07:37:53;36.55;;;21.63;;
58752;SDS011;44525;46.052;13.610;2022-10-14T07:40:19;35.53;;;22.00;;
58752;SDS011;44525;46.052;13.610;2022-10-14T07:42:45;38.40;;;22.98;;
58752;SDS011;44525;46.052;13.610;2022-10-14T07:45:11;37.95;;;22.70;;
58752;SDS011;44525;46.052;13.610;2022-10-14T07:47:41;34.75;;;21.55;;
58752;SDS011;44525;46.052;13.610;2022-10-14T07:50:07;29.92;;;20.08;;
58752;SDS011;44525;46.052;13.610;2022-10-14T07:52:33;33.55;;;20.60;;
58752;SDS011;44525;46.052;13.610;2022-10-14T07:54:59;33.78;;;21.67;;
58752;SDS011;44525;46.052;13.610;2022-10-14T07:57:24;33.38;;;19.98;;
58752;SDS011;44525;46.052;13.610;2022-10-14T07:59:51;32.75;;;20.40;;
58752;SDS011;44525;46.052;13.610;2022-10-14T08:02:17;29.13;;;20.13;;
58752;SDS011;44525;46.052;13.610;2022-10-14T08:04:43;32.65;;;20.27;;
58752;SDS011;44525;46.052;13.610;2022-10-14T08:07:08;36.72;;;22.38;;
58752;SDS011;44525;46.052;13.610;2022-10-14T08:09:34;33.90;;;21.60;;
58752;SDS011;44525;46.052;13.610;2022-10-14T08:12:00;35.45;;;20.10;;
58752;SDS011;44525;46.052;13.610;2022-10-14T08:14:26;30.92;;;20.90;;
58752;SDS011;44525;46.052;13.610;2022-10-14T08:16:52;30.88;;;20.08;;
58752;SDS011;44525;46.052;13.610;2022-10-14T08:19:17;33.33;;;20.77;;
58752;SDS011;44525;46.052;13.610;2022-10-14T08:21:43;35.33;;;22.10;;
58752;SDS011;44525;46.052;13.610;2022-10-14T08:24:08;33.15;;;21.98;;
58752;SDS011;44525;46.052;13.610;2022-10-14T08:26:35;36.03;;;23.40;;
58752;SDS011;44525;46.052;13.610;2022-10-14T08:29:03;36.78;;;23.27;;
58752;SDS011;44525;46.052;13.610;2022-10-14T08:31:30;35.10;;;23.13;;
58752;SDS011;44525;46.052;13.610;2022-10-14T08:33:57;37.63;;;24.42;;
58752;SDS011;44525;46.052;13.610;2022-10-14T08:36:23;37.55;;;24.45;;
58752;SDS011;44525;46.052;13.610;2022-10-14T08:38:50;38.45;;;24.55;;
58752;SDS011;44525;46.052;13.610;2022-10-14T08:44:07;34.22;;;23.75;;
58752;SDS011;44525;46.052;13.610;2022-10-14T08:46:37;33.75;;;22.92;;
58752;SDS011;44525;46.052;13.610;2022-10-14T08:49:06;33.08;;;22.20;;
58752;SDS011;44525;46.052;13.610;2022-10-14T08:51:34;32.85;;;22.00;;
58752;SDS011;44525;46.052;13.610;2022-10-14T08:54:03;37.22;;;22.80;;
58752;SDS011;44525;46.052;13.610;2022-10-14T08:56:34;40.15;;;22.63;;
58752;SDS011;44525;46.052;13.610;2022-10-14T08:59:06;35.10;;;24.33;;
58752;SDS011;44525;46.052;13.610;2022-10-14T09:01:48;32.72;;;23.20;;
58752;SDS011;44525;46.052;13.610;2022-10-14T09:04:17;33.78;;;22.27;;
58752;SDS011;44525;46.052;13.610;2022-10-14T09:06:44;33.00;;;22.20;;
58752;SDS011;44525;46.052;13.610;2022-10-14T09:09:14;32.33;;;22.38;;
58752;SDS011;44525;46.052;13.610;2022-10-14T09:11:50;31.30;;;22.27;;
58752;SDS011;44525;46.052;13.610;2022-10-14T09:14:22;35.33;;;23.02;;
58752;SDS011;44525;46.052;13.610;2022-10-14T09:16:52;34.58;;;23.55;;
58752;SDS011;44525;46.052;13.610;2022-10-14T09:19:30;33.58;;;22.42;;
58752;SDS011;44525;46.052;13.610;2022-10-14T09:21:59;33.63;;;22.30;;
58752;SDS011;44525;46.052;13.610;2022-10-14T09:24:35;35.80;;;22.50;;
58752;SDS011;44525;46.052;13.610;2022-10-14T09:27:20;33.25;;;22.95;;
58752;SDS011;44525;46.052;13.610;2022-10-14T09:32:19;33.50;;;22.35;;
58752;SDS011;44525;46.052;13.610;2022-10-14T09:34:57;34.17;;;23.10;;
58752;SDS011;44525;46.052;13.610;2022-10-14T09:39:55;31.77;;;22.40;;
58752;SDS011;44525;46.052;13.610;2022-10-14T09:42:26;31.02;;;22.00;;
58752;SDS011;44525;46.052;13.610;2022-10-14T09:45:05;31.98;;;22.38;;
58752;SDS011;44525;46.052;13.610;2022-10-14T09:47:31;34.72;;;21.77;;
58752;SDS011;44525;46.052;13.610;2022-10-14T09:50:06;31.40;;;21.92;;
58752;SDS011;44525;46.052;13.610;2022-10-14T09:52:34;31.65;;;21.50;;
58752;SDS011;44525;46.052;13.610;2022-10-14T09:55:02;35.30;;;21.83;;
58752;SDS011;44525;46.052;13.610;2022-10-14T09:57:32;32.33;;;21.85;;
58752;SDS011;44525;46.052;13.610;2022-10-14T09:59:58;32.70;;;21.70;;
58752;SDS011;44525;46.052;13.610;2022-10-14T10:02:45;32.50;;;22.02;;
58752;SDS011;44525;46.052;13.610;2022-10-14T10:05:13;32.22;;;21.40;;
58752;SDS011;44525;46.052;13.610;2022-10-14T10:07:46;34.42;;;22.17;;
58752;SDS011;44525;46.052;13.610;2022-10-14T10:10:28;34.75;;;22.80;;
58752;SDS011;44525;46.052;13.610;2022-10-14T10:12:55;37.08;;;23.48;;
58752;SDS011;44525;46.052;13.610;2022-10-14T10:15:23;36.20;;;23.30;;
58752;SDS011;44525;46.052;13.610;2022-10-14T10:17:50;35.83;;;22.90;;
58752;SDS011;44525;46.052;13.610;2022-10-14T10:20:19;33.67;;;21.85;;
58752;SDS011;44525;46.052;13.610;2022-10-14T10:22:52;33.03;;;21.83;;
58752;SDS011;44525;46.052;13.610;2022-10-14T10:25:19;31.67;;;21.63;;
58752;SDS011;44525;46.052;13.610;2022-10-14T10:27:50;31.13;;;21.33;;
58752;SDS011;44525;46.052;13.610;2022-10-14T10:55:32;30.48;;;19.15;;
58752;SDS011;44525;46.052;13.610;2022-10-14T10:58:26;31.98;;;19.95;;
58752;SDS011;44525;46.052;13.610;2022-10-14T11:01:00;34.10;;;21.05;;
58752;SDS011;44525;46.052;13.610;2022-10-14T11:12:57;31.02;;;19.23;;
58752;SDS011;44525;46.052;13.610;2022-10-14T11:15:30;31.75;;;19.30;;
58752;SDS011;44525;46.052;13.610;2022-10-14T11:34:18;28.60;;;20.05;;
58752;SDS011;44525;46.052;13.610;2022-10-14T11:39:56;29.65;;;19.98;;
58752;SDS011;44525;46.052;13.610;2022-10-14T11:42:43;30.88;;;20.52;;
58752;SDS011;44525;46.052;13.610;2022-10-14T11:48:07;30.77;;;19.70;;
58752;SDS011;44525;46.052;13.610;2022-10-14T11:50:51;30.08;;;20.35;;
58752;SDS011;44525;46.052;13.610;2022-10-14T11:53:29;27.63;;;19.48;;
58752;SDS011;44525;46.052;13.610;2022-10-14T11:56:05;30.38;;;20.95;;
58752;SDS011;44525;46.052;13.610;2022-10-14T11:58:54;34.78;;;21.48;;
58752;SDS011;44525;46.052;13.610;2022-10-14T12:02:12;29.48;;;20.45;;
58752;SDS011;44525;46.052;13.610;2022-10-14T12:05:01;30.42;;;19.83;;
58752;SDS011;44525;46.052;13.610;2022-10-14T12:10:25;30.05;;;20.65;;
58752;SDS011;44525;46.052;13.610;2022-10-14T12:12:56;28.63;;;19.17;;
58752;SDS011;44525;46.052;13.610;2022-10-14T12:15:24;27.65;;;19.42;;
58752;SDS011;44525;46.052;13.610;2022-10-14T12:18:00;27.08;;;19.83;;
58752;SDS011;44525;46.052;13.610;2022-10-14T12:28:42;28.02;;;19.25;;
58752;SDS011;44525;46.052;13.610;2022-10-14T12:31:22;28.23;;;19.13;;
58752;SDS011;44525;46.052;13.610;2022-10-14T12:36:35;26.63;;;18.80;;
58752;SDS011;44525;46.052;13.610;2022-10-14T12:44:28;29.42;;;19.27;;
58752;SDS011;44525;46.052;13.610;2022-10-14T12:46:58;28.63;;;19.73;;
58752;SDS011;44525;46.052;13.610;2022-10-14T12:49:28;29.63;;;20.25;;
58752;SDS011;44525;46.052;13.610;2022-10-14T12:52:01;27.90;;;19.13;;
58752;SDS011;44525;46.052;13.610;2022-10-14T12:54:30;27.77;;;19.30;;
58752;SDS011;44525;46.052;13.610;2022-10-14T12:57:00;26.98;;;18.92;;
58752;SDS011;44525;46.052;13.610;2022-10-14T12:59:35;26.45;;;18.35;;
58752;SDS011;44525;46.052;13.610;2022-10-14T13:05:00;27.05;;;18.70;;
58752;SDS011;44525;46.052;13.610;2022-10-14T13:07:30;25.77;;;18.52;;
58752;SDS011;44525;46.052;13.610;2022-10-14T13:09:59;24.48;;;17.67;;
58752;SDS011;44525;46.052;13.610;2022-10-14T13:18:48;25.88;;;17.92;;
58752;SDS011;44525;46.052;13.610;2022-10-14T13:39:41;23.52;;;16.25;;
58752;SDS011;44525;46.052;13.610;2022-10-14T13:42:11;23.80;;;15.77;;
58752;SDS011;44525;46.052;13.610;2022-10-14T13:45:02;25.95;;;17.75;;
58752;SDS011;44525;46.052;13.610;2022-10-14T13:47:34;22.90;;;17.17;;
58752;SDS011;44525;46.052;13.610;2022-10-14T13:50:01;26.48;;;17.85;;
58752;SDS011;44525;46.052;13.610;2022-10-14T13:52:28;23.52;;;16.20;;
58752;SDS011;44525;46.052;13.610;2022-10-14T13:55:17;26.80;;;17.98;;
58752;SDS011;44525;46.052;13.610;2022-10-14T13:57:58;26.88;;;17.45;;
58752;SDS011;44525;46.052;13.610;2022-10-14T14:00:34;28.60;;;18.73;;
58752;SDS011;44525;46.052;13.610;2022-10-14T14:03:02;27.25;;;18.02;;
58752;SDS011;44525;46.052;13.610;2022-10-14T14:05:45;28.92;;;19.77;;
58752;SDS011;44525;46.052;13.610;2022-10-14T14:08:16;31.60;;;21.10;;
58752;SDS011;44525;46.052;13.610;2022-10-14T14:10:54;28.25;;;18.98;;
58752;SDS011;44525;46.052;13.610;2022-10-14T14:13:24;26.17;;;17.95;;
58752;SDS011;44525;46.052;13.610;2022-10-14T14:15:52;33.10;;;20.35;;
58752;SDS011;44525;46.052;13.610;2022-10-14T14:18:25;30.23;;;19.25;;
58752;SDS011;44525;46.052;13.610;2022-10-14T14:21:02;28.02;;;19.67;;
58752;SDS011;44525;46.052;13.610;2022-10-14T14:23:28;34.33;;;21.02;;
58752;SDS011;44525;46.052;13.610;2022-10-14T14:25:54;32.25;;;20.02;;
58752;SDS011;44525;46.052;13.610;2022-10-14T14:28:21;31.00;;;20.00;;
58752;SDS011;44525;46.052;13.610;2022-10-14T14:30:50;35.42;;;20.10;;
58752;SDS011;44525;46.052;13.610;2022-10-14T14:33:21;32.58;;;20.95;;
58752;SDS011;44525;46.052;13.610;2022-10-14T14:36:00;31.40;;;21.75;;
58752;SDS011;44525;46.052;13.610;2022-10-14T14:38:28;30.75;;;20.65;;
58752;SDS011;44525;46.052;13.610;2022-10-14T14:41:05;34.97;;;20.90;;
58752;SDS011;44525;46.052;13.610;2022-10-14T14:43:46;38.08;;;22.17;;
58752;SDS011;44525;46.052;13.610;2022-10-14T14:46:19;30.27;;;19.50;;
58752;SDS011;44525;46.052;13.610;2022-10-14T14:48:52;38.50;;;21.48;;
58752;SDS011;44525;46.052;13.610;2022-10-14T14:51:20;37.13;;;20.85;;
58752;SDS011;44525;46.052;13.610;2022-10-14T14:53:55;31.25;;;20.77;;
58752;SDS011;44525;46.052;13.610;2022-10-14T14:56:23;34.22;;;21.13;;
58752;SDS011;44525;46.052;13.610;2022-10-14T14:58:54;36.05;;;22.50;;
58752;SDS011;44525;46.052;13.610;2022-10-14T15:01:23;37.97;;;22.80;;
58752;SDS011;44525;46.052;13.610;2022-10-14T15:04:03;36.05;;;21.45;;
58752;SDS011;44525;46.052;13.610;2022-10-14T15:06:33;32.25;;;21.67;;
58752;SDS011;44525;46.052;13.610;2022-10-14T15:09:06;35.40;;;21.88;;
58752;SDS011;44525;46.052;13.610;2022-10-14T15:11:45;35.28;;;22.05;;
58752;SDS011;44525;46.052;13.610;2022-10-14T15:14:31;32.35;;;21.40;;
58752;SDS011;44525;46.052;13.610;2022-10-14T15:17:22;36.85;;;22.08;;
58752;SDS011;44525;46.052;13.610;2022-10-14T15:22:53;37.28;;;22.30;;
58752;SDS011;44525;46.052;13.610;2022-10-14T15:27:48;42.20;;;22.20;;
58752;SDS011;44525;46.052;13.610;2022-10-14T15:32:51;33.08;;;22.45;;
58752;SDS011;44525;46.052;13.610;2022-10-14T15:35:20;38.85;;;22.60;;
58752;SDS011;44525;46.052;13.610;2022-10-14T15:37:47;38.33;;;23.42;;
58752;SDS011;44525;46.052;13.610;2022-10-14T15:40:14;31.73;;;21.20;;
58752;SDS011;44525;46.052;13.610;2022-10-14T15:42:40;40.00;;;24.77;;
58752;SDS011;44525;46.052;13.610;2022-10-14T15:45:06;38.15;;;25.50;;
58752;SDS011;44525;46.052;13.610;2022-10-14T15:47:32;50.97;;;23.27;;
58752;SDS011;44525;46.052;13.610;2022-10-14T15:49:58;41.40;;;24.90;;
58752;SDS011;44525;46.052;13.610;2022-10-14T15:52:24;46.17;;;26.05;;
58752;SDS011;44525;46.052;13.610;2022-10-14T15:54:49;41.08;;;25.20;;
58752;SDS011;44525;46.052;13.610;2022-10-14T15:57:15;47.95;;;24.75;;
58752;SDS011;44525;46.052;13.610;2022-10-14T15:59:41;40.78;;;24.25;;
58752;SDS011;44525;46.052;13.610;2022-10-14T16:02:14;41.10;;;24.08;;
58752;SDS011;44525;46.052;13.610;2022-10-14T16:04:43;39.03;;;22.60;;
58752;SDS011;44525;46.052;13.610;2022-10-14T16:07:11;38.50;;;23.05;;
58752;SDS011;44525;46.052;13.610;2022-10-14T16:09:38;44.65;;;24.98;;
58752;SDS011;44525;46.052;13.610;2022-10-14T16:12:04;43.80;;;26.00;;
58752;SDS011;44525;46.052;13.610;2022-10-14T16:14:34;38.35;;;24.00;;
58752;SDS011;44525;46.052;13.610;2022-10-14T16:16:59;43.55;;;24.15;;
58752;SDS011;44525;46.052;13.610;2022-10-14T16:19:27;42.42;;;23.23;;
58752;SDS011;44525;46.052;13.610;2022-10-14T16:21:52;44.80;;;24.73;;
58752;SDS011;44525;46.052;13.610;2022-10-14T16:24:19;42.05;;;24.77;;
58752;SDS011;44525;46.052;13.610;2022-10-14T16:26:45;46.88;;;25.80;;
58752;SDS011;44525;46.052;13.610;2022-10-14T16:29:13;45.63;;;24.15;;
58752;SDS011;44525;46.052;13.610;2022-10-14T16:31:42;42.40;;;25.33;;
58752;SDS011;44525;46.052;13.610;2022-10-14T16:34:11;44.95;;;25.15;;
58752;SDS011;44525;46.052;13.610;2022-10-14T16:36:43;44.08;;;25.95;;
58752;SDS011;44525;46.052;13.610;2022-10-14T16:39:10;44.30;;;24.67;;
58752;SDS011;44525;46.052;13.610;2022-10-14T16:41:36;44.00;;;26.52;;
58752;SDS011;44525;46.052;13.610;2022-10-14T16:44:02;47.03;;;25.58;;